»·PEaware :: SWA3653 KDAL-KSTL

SWA3653 :: KDAL-KSTL

FLIGHT INFORMATION

Flight Status: Arrived
Operator:
Southwest Airlines
More flights by this operator :: More flights under this callsign
Pilot: Cullen C. (7783)
Aircraft: BOEING 737-800
(B738)
More flights by this aircraft type
Origin: KDAL Dallas Love
United States
Destination: KSTL Lambert-St Louis Intl
United States
More flights between these airports :: More routes between these airports
Route: ESNYE4 MLC SGF KAYLA3
File this flight plan on PilotEdge
Remarks: PBN / A1B1C1D1S1S2 DOF / 180108 REG / N806SB EET / KZME0031 KZKC0040 OPR / SWA PER / C RMK / TCAS SIMBRIEF
Altitude:
(Current/Filed)
35,000ft
Speed:
(Current/Filed)
450kts
Departed: 07-Jan-18 05:42 PM
Arrived: 07-Jan-18 06:57 PM
Distance/Time
Traveled:
474nm/1:15
Distance/Time
To Go:
Arrived

Flight Plot

Page will automatically refresh every two minutes.

Flight plan parsing failed; only flown route is shown


Map Options




Map Legend


Flown Route
Filed Route
Departure Airport
Arrival Airport
Navaid (VOR, NDB)
Fix

Horizontal Profiles

Position Reports

Time Latitude Longitude Heading Altitude Ground
Speed
07-Jan-18 17:31 32.846502 -96.850884 181 482ft 0kts
07-Jan-18 17:32 32.846502 -96.850884 181 482ft 0kts
07-Jan-18 17:33 32.846502 -96.850884 181 482ft 0kts
07-Jan-18 17:34 32.846502 -96.850884 181 482ft 0kts
07-Jan-18 17:35 32.846502 -96.850884 181 482ft 0kts
07-Jan-18 17:36 32.846503 -96.850884 181 482ft 0kts
07-Jan-18 17:37 32.846503 -96.850884 181 482ft 0kts
07-Jan-18 17:38 32.847042 -96.850872 181 482ft 2kts
07-Jan-18 17:39 32.847421 -96.850566 252 482ft 2kts
07-Jan-18 17:40 32.847436 -96.850302 271 482ft 0kts
07-Jan-18 17:41 32.847436 -96.850314 271 482ft 0kts
07-Jan-18 17:42 32.847741 -96.853355 298 482ft 11kts
07-Jan-18 17:43 32.848033 -96.857828 315 482ft 13kts
07-Jan-18 17:44 32.850485 -96.860673 315 482ft 12kts
07-Jan-18 17:45 32.851293 -96.863167 191 482ft 7kts
07-Jan-18 17:46 32.850820 -96.862873 136 482ft 0kts
07-Jan-18 17:47 32.850556 -96.862574 136 482ft 23kts
07-Jan-18 17:48 32.823805 -96.832048 135 1986ft 180kts
07-Jan-18 17:49 32.841596 -96.775373 21 3444ft 250kts
07-Jan-18 17:50 32.903762 -96.804779 308 4997ft 265kts
07-Jan-18 17:51 32.956065 -96.866189 337 5006ft 281kts
07-Jan-18 17:52 33.033888 -96.862516 0 5976ft 291kts
07-Jan-18 17:53 33.114750 -96.860627 358 7401ft 298kts
07-Jan-18 17:54 33.198861 -96.853395 2 10408ft 315kts
07-Jan-18 17:55 33.291589 -96.842104 0 12982ft 345kts
07-Jan-18 17:56 33.388481 -96.830544 0 15868ft 358kts
07-Jan-18 17:57 33.486494 -96.801373 24 18524ft 383kts
07-Jan-18 17:58 33.581247 -96.739289 24 21039ft 397kts
07-Jan-18 17:59 33.678976 -96.676082 23 23363ft 409kts
07-Jan-18 18:00 33.780159 -96.610771 23 25514ft 422kts
07-Jan-18 18:01 33.883538 -96.544041 23 27922ft 421kts
07-Jan-18 18:02 33.984170 -96.479127 22 30115ft 416kts
07-Jan-18 18:03 34.084709 -96.412127 28 32051ft 416kts
07-Jan-18 18:04 34.178733 -96.334237 29 33730ft 412kts
07-Jan-18 18:05 34.256726 -96.269931 28 34892ft 410kts
07-Jan-18 18:06 34.370490 -96.176312 29 34964ft 442kts
07-Jan-18 18:07 34.457323 -96.104845 29 34964ft 466kts
07-Jan-18 18:08 34.584760 -95.999931 29 34955ft 477kts
07-Jan-18 18:09 34.676117 -95.924785 29 34953ft 477kts
07-Jan-18 18:10 34.786077 -95.834415 29 34955ft 477kts
07-Jan-18 18:11 34.911210 -95.723889 34 34960ft 478kts
07-Jan-18 18:12 34.996341 -95.640177 34 34956ft 468kts
07-Jan-18 18:13 35.096482 -95.541532 34 34957ft 465kts
07-Jan-18 18:14 35.206746 -95.433024 39 34970ft 452kts
07-Jan-18 18:15 35.290145 -95.350783 37 34999ft 476kts
07-Jan-18 18:16 35.394841 -95.247882 33 34991ft 485kts
07-Jan-18 18:17 35.499991 -95.144686 33 34967ft 485kts
07-Jan-18 18:18 35.604901 -95.041682 33 34966ft 485kts
07-Jan-18 18:19 35.710097 -94.938468 33 34994ft 485kts
07-Jan-18 18:20 35.815473 -94.835158 33 34997ft 484kts
07-Jan-18 18:21 35.920421 -94.732337 33 34997ft 484kts
07-Jan-18 18:22 36.025794 -94.629182 33 34999ft 484kts
07-Jan-18 18:23 36.130558 -94.526701 33 34999ft 484kts
07-Jan-18 18:24 36.236099 -94.423536 32 35000ft 484kts
07-Jan-18 18:25 36.341633 -94.320496 33 34962ft 485kts
07-Jan-18 18:26 36.447252 -94.217460 33 34990ft 485kts
07-Jan-18 18:27 36.552886 -94.114454 32 34965ft 485kts
07-Jan-18 18:28 36.659023 -94.011034 32 34967ft 485kts
07-Jan-18 18:29 36.764858 -93.907992 32 34995ft 485kts
07-Jan-18 18:30 36.871072 -93.804664 32 34996ft 485kts
07-Jan-18 18:31 36.961362 -93.716960 33 34987ft 487kts
07-Jan-18 18:32 37.067979 -93.613319 33 34997ft 480kts
07-Jan-18 18:33 37.172059 -93.512312 33 34994ft 474kts
07-Jan-18 18:34 37.276085 -93.411434 33 34998ft 474kts
07-Jan-18 18:35 37.378844 -93.308656 39 34989ft 478kts
07-Jan-18 18:36 37.475700 -93.194676 39 34989ft 477kts
07-Jan-18 18:37 37.572781 -93.080998 38 34992ft 480kts
07-Jan-18 18:38 37.671830 -92.965210 39 35018ft 492kts
07-Jan-18 18:39 37.772928 -92.847163 39 35029ft 501kts
07-Jan-18 18:40 37.874992 -92.728101 38 35031ft 500kts
07-Jan-18 18:41 37.960548 -92.591247 54 35011ft 486kts
07-Jan-18 18:42 38.039150 -92.442545 53 34312ft 537kts
07-Jan-18 18:43 38.124486 -92.282571 54 34397ft 564kts
07-Jan-18 18:44 38.204009 -92.133775 53 32617ft 474kts
07-Jan-18 18:45 38.274048 -92.003091 53 30041ft 431kts
07-Jan-18 18:46 38.341799 -91.876990 53 25689ft 437kts
07-Jan-18 18:47 38.407416 -91.753072 54 22095ft 412kts
07-Jan-18 18:48 38.468940 -91.635329 54 19418ft 403kts
07-Jan-18 18:49 38.530042 -91.518556 54 17231ft 391kts
07-Jan-18 18:50 38.588481 -91.407068 54 15371ft 367kts
07-Jan-18 18:51 38.644111 -91.300967 55 13590ft 356kts
07-Jan-18 18:52 38.693065 -91.193850 80 11856ft 343kts
07-Jan-18 18:53 38.707219 -91.075941 61 10165ft 335kts
07-Jan-18 18:54 38.752410 -90.976037 61 8525ft 309kts
07-Jan-18 18:55 38.793419 -90.885330 61 7074ft 286kts
07-Jan-18 18:56 38.811548 -90.789956 81 5962ft 276kts
07-Jan-18 18:57 38.826290 -90.696430 80 4924ft 262kts
07-Jan-18 18:58 38.840025 -90.612621 79 3994ft 256kts
07-Jan-18 18:59 38.824316 -90.527401 117 3023ft 243kts
07-Jan-18 19:00 38.792870 -90.458287 123 2078ft 210kts
07-Jan-18 19:01 38.766461 -90.404762 123 1098ft 168kts
07-Jan-18 19:02 38.746109 -90.363392 123 578ft 73kts
07-Jan-18 19:03 38.741837 -90.358947 229 578ft 8kts
07-Jan-18 19:04 38.741249 -90.359562 215 578ft 0kts
07-Jan-18 19:05 38.741249 -90.359562 215 578ft 0kts
07-Jan-18 19:06 38.741249 -90.359562 215 578ft 0kts
07-Jan-18 19:07 38.741249 -90.359562 215 578ft 0kts
07-Jan-18 19:08 38.741249 -90.359562 215 578ft 0kts
07-Jan-18 19:09 38.741249 -90.359562 215 578ft 0kts
07-Jan-18 19:10 38.741249 -90.359562 215 578ft 0kts
07-Jan-18 19:11 38.741249 -90.359562 215 578ft 0kts

Navigation Log

Ident Type
Flight plan parsing failed, navigation log unavailable